createdAt,value
2017-09-24T00:00:25.022Z,91.33
2017-09-24T00:02:54.114Z,91.38
2017-09-24T00:05:23.190Z,91.33
2017-09-24T00:07:51.525Z,91.29
2017-09-24T00:10:19.842Z,91.28
2017-09-24T00:12:48.175Z,91.31
2017-09-24T00:15:17.254Z,91.32
2017-09-24T00:17:45.563Z,91.34
2017-09-24T00:20:13.864Z,91.45
2017-09-24T00:22:42.166Z,91.49
2017-09-24T00:25:10.492Z,91.54
2017-09-24T00:27:39.558Z,91.59
2017-09-24T00:30:07.864Z,91.56
2017-09-24T00:32:36.943Z,91.58
2017-09-24T00:35:05.274Z,91.64
2017-09-24T00:37:33.572Z,91.58
2017-09-24T00:40:01.887Z,91.35
2017-09-24T00:42:30.248Z,91.32
2017-09-24T00:44:58.584Z,91.26
2017-09-24T00:47:27.677Z,91.32
2017-09-24T00:49:56.766Z,91.32
2017-09-24T00:52:25.066Z,91.39
2017-09-24T00:54:54.190Z,91.51
2017-09-24T00:57:22.510Z,91.52
2017-09-24T00:59:50.826Z,91.62
2017-09-24T01:02:19.895Z,91.62
2017-09-24T01:04:48.215Z,91.65
2017-09-24T01:07:16.536Z,91.69
2017-09-24T01:09:44.856Z,91.73
2017-09-24T01:12:13.184Z,91.74
2017-09-24T01:14:41.507Z,91.80
2017-09-24T01:17:09.840Z,91.96
2017-09-24T01:19:38.193Z,92.02
2017-09-24T01:22:07.278Z,92.09
2017-09-24T01:24:35.607Z,92.04
2017-09-24T01:27:03.913Z,91.97
2017-09-24T01:29:32.241Z,91.95
2017-09-24T01:32:01.326Z,91.97
2017-09-24T01:34:29.628Z,92.04
2017-09-24T01:36:57.982Z,92.12
2017-09-24T01:39:26.306Z,92.21
2017-09-24T01:41:54.613Z,92.32
2017-09-24T01:44:22.936Z,92.32
2017-09-24T01:46:52.016Z,92.33
2017-09-24T01:49:20.348Z,92.45
2017-09-24T01:51:48.684Z,92.58
2017-09-24T01:54:17.001Z,92.62
2017-09-24T01:56:46.089Z,92.73
2017-09-24T01:59:15.176Z,92.83
2017-09-24T02:01:43.506Z,92.91
2017-09-24T02:04:11.822Z,92.97
2017-09-24T02:06:40.147Z,93.00
2017-09-24T02:09:08.483Z,93.08
2017-09-24T02:11:36.778Z,93.19
2017-09-24T02:14:05.094Z,93.26
2017-09-24T02:16:33.407Z,93.36
2017-09-24T02:19:01.727Z,93.46
2017-09-24T02:21:30.058Z,93.46
2017-09-24T02:23:58.389Z,93.49
2017-09-24T02:26:26.699Z,93.59
2017-09-24T02:28:55.766Z,93.64
2017-09-24T02:31:25.593Z,93.68
2017-09-24T02:33:53.903Z,93.68
2017-09-24T02:36:22.204Z,93.81
2017-09-24T02:38:50.533Z,93.88
2017-09-24T02:41:19.630Z,93.86
2017-09-24T02:43:47.936Z,93.96
2017-09-24T02:46:17.024Z,94.06
2017-09-24T02:48:46.101Z,94.13
2017-09-24T02:51:15.275Z,94.27
2017-09-24T02:53:43.591Z,94.38
2017-09-24T02:56:11.942Z,94.45
2017-09-24T02:58:40.262Z,94.50
2017-09-24T03:01:08.571Z,94.57
2017-09-24T03:03:36.884Z,94.66
2017-09-24T03:06:05.188Z,94.80
2017-09-24T03:08:33.559Z,95.01
2017-09-24T03:11:01.878Z,95.05
2017-09-24T03:13:30.978Z,95.17
2017-09-24T03:16:00.056Z,95.11
2017-09-24T03:18:28.364Z,95.16
2017-09-24T03:20:57.455Z,95.24
2017-09-24T03:23:26.530Z,95.27
2017-09-24T03:25:54.838Z,95.38
2017-09-24T03:28:23.940Z,95.39
2017-09-24T03:30:52.285Z,95.58
2017-09-24T03:33:20.593Z,95.63
2017-09-24T03:35:48.946Z,95.71
2017-09-24T03:38:17.248Z,95.83
2017-09-24T03:40:45.583Z,95.94
2017-09-24T03:43:13.933Z,95.97
2017-09-24T03:45:43.088Z,96.04
2017-09-24T03:48:11.403Z,96.10
2017-09-24T03:50:39.735Z,96.12
2017-09-24T03:53:08.058Z,96.16
2017-09-24T03:55:36.374Z,96.18
2017-09-24T03:58:04.667Z,96.28
2017-09-24T04:00:32.999Z,96.41
2017-09-24T04:03:01.322Z,96.43
2017-09-24T04:05:29.632Z,96.51
2017-09-24T04:07:58.003Z,96.53
2017-09-24T04:10:26.322Z,96.51
2017-09-24T04:12:54.634Z,96.48
2017-09-24T04:15:23.731Z,96.62
2017-09-24T04:17:53.562Z,96.73
2017-09-24T04:20:21.889Z,96.74
2017-09-24T04:22:50.210Z,96.84
2017-09-24T04:25:19.312Z,96.82
2017-09-24T04:27:48.431Z,96.89
2017-09-24T04:30:16.751Z,96.86
2017-09-24T04:32:45.056Z,96.83
2017-09-24T04:35:13.369Z,96.75
2017-09-24T04:37:42.458Z,96.83
2017-09-24T04:40:11.574Z,96.85
2017-09-24T04:42:39.886Z,96.86
2017-09-24T04:45:08.218Z,96.84
2017-09-24T04:47:37.332Z,96.85
2017-09-24T04:50:05.633Z,96.82
2017-09-24T04:52:33.952Z,96.82
2017-09-24T04:55:02.286Z,96.96
2017-09-24T04:57:30.605Z,97.01
2017-09-24T04:59:58.950Z,96.98
2017-09-24T05:02:27.270Z,96.99
2017-09-24T05:04:55.605Z,97.01
2017-09-24T05:07:23.920Z,97.04
2017-09-24T05:09:52.287Z,97.03
2017-09-24T05:12:20.645Z,97.11
2017-09-24T05:14:48.965Z,97.18
2017-09-24T05:17:17.289Z,97.20
2017-09-24T05:19:45.605Z,97.21
2017-09-24T05:22:13.930Z,97.28
2017-09-24T05:24:42.279Z,97.42
2017-09-24T05:27:10.595Z,97.52
2017-09-24T05:29:38.935Z,97.61
2017-09-24T05:32:07.258Z,97.65
2017-09-24T05:34:35.577Z,97.66
2017-09-24T05:37:04.662Z,97.65
2017-09-24T05:39:33.737Z,97.63
2017-09-24T05:42:02.092Z,97.60
2017-09-24T05:44:30.411Z,97.56
2017-09-24T05:46:58.741Z,97.51
2017-09-24T05:49:27.093Z,97.48
2017-09-24T05:51:56.189Z,97.43
2017-09-24T05:54:25.277Z,97.36
2017-09-24T05:56:53.609Z,97.32
2017-09-24T05:59:21.935Z,97.28
2017-09-24T06:01:50.329Z,97.23
2017-09-24T06:04:18.675Z,97.18
2017-09-24T06:06:46.992Z,97.09
2017-09-24T06:09:15.335Z,97.00
2017-09-24T06:11:43.648Z,96.87
2017-09-24T06:14:11.979Z,96.83
2017-09-24T06:16:40.300Z,96.76
2017-09-24T06:19:08.617Z,96.69
2017-09-24T06:21:37.720Z,96.59
2017-09-24T06:24:06.815Z,96.50
2017-09-24T06:26:35.937Z,96.39
2017-09-24T06:29:04.249Z,96.33
2017-09-24T06:31:32.581Z,96.22
2017-09-24T06:34:01.689Z,96.18
2017-09-24T06:36:30.763Z,96.16
2017-09-24T06:38:59.100Z,96.17
2017-09-24T06:41:27.456Z,96.06
2017-09-24T06:43:55.776Z,95.92
2017-09-24T06:46:24.102Z,95.76
2017-09-24T06:48:52.435Z,95.69
2017-09-24T06:51:20.769Z,95.66
2017-09-24T06:53:49.853Z,95.51
2017-09-24T06:56:18.208Z,95.44
2017-09-24T06:58:46.543Z,95.22
2017-09-24T07:01:15.646Z,95.10
2017-09-24T07:03:44.011Z,95.07
2017-09-24T07:06:13.112Z,95.01
2017-09-24T07:08:42.180Z,94.91
2017-09-24T07:11:10.501Z,94.71
2017-09-24T07:13:39.595Z,94.46
2017-09-24T07:16:08.669Z,94.29
2017-09-24T07:18:36.990Z,94.16
2017-09-24T07:21:05.320Z,93.95
2017-09-24T07:23:33.649Z,93.73
2017-09-24T07:26:01.982Z,93.48
2017-09-24T07:28:30.320Z,93.24
2017-09-24T07:30:58.661Z,93.01
2017-09-24T07:33:26.980Z,92.73
2017-09-24T07:35:56.092Z,92.41
2017-09-24T07:38:24.428Z,92.00
2017-09-24T07:40:52.806Z,91.77
2017-09-24T07:43:21.143Z,91.48
2017-09-24T07:45:49.493Z,90.91
2017-09-24T07:48:18.609Z,90.82
2017-09-24T07:50:46.944Z,90.81
2017-09-24T07:53:15.262Z,90.31
2017-09-24T07:55:44.376Z,90.13
2017-09-24T07:58:12.702Z,89.98
2017-09-24T08:00:41.040Z,89.58
2017-09-24T08:03:09.394Z,89.28
2017-09-24T08:05:37.728Z,89.01
2017-09-24T08:08:06.068Z,88.69
2017-09-24T08:10:35.171Z,88.41
2017-09-24T08:13:04.246Z,88.04
2017-09-24T08:15:32.564Z,87.65
2017-09-24T08:18:01.658Z,87.43
2017-09-24T08:20:30.762Z,87.30
2017-09-24T08:22:59.086Z,86.89
2017-09-24T08:25:27.407Z,86.29
2017-09-24T08:27:55.744Z,85.85
2017-09-24T08:30:24.106Z,85.50
2017-09-24T08:32:52.447Z,85.36
2017-09-24T08:35:20.779Z,84.93
2017-09-24T08:37:49.120Z,84.54
2017-09-24T08:40:17.441Z,84.21
2017-09-24T08:42:45.753Z,83.73
2017-09-24T08:45:14.168Z,83.41
2017-09-24T08:47:43.250Z,82.89
2017-09-24T08:50:11.580Z,82.63
2017-09-24T08:52:39.892Z,82.21
2017-09-24T08:55:08.226Z,81.28
2017-09-24T08:57:36.617Z,80.81
2017-09-24T09:00:04.944Z,80.59
2017-09-24T09:02:33.259Z,80.23
2017-09-24T09:05:02.349Z,79.50
2017-09-24T09:07:30.673Z,79.16
2017-09-24T09:09:59.014Z,79.22
2017-09-24T09:12:27.337Z,78.93
2017-09-24T09:14:55.680Z,79.03
2017-09-24T09:17:23.995Z,78.63
2017-09-24T09:19:52.329Z,78.52
2017-09-24T09:22:20.665Z,77.98
2017-09-24T09:24:49.051Z,77.84
2017-09-24T09:27:17.381Z,77.57
2017-09-24T09:29:45.726Z,77.41
2017-09-24T09:32:14.151Z,77.62
2017-09-24T09:35:00.347Z,77.62
2017-09-24T09:37:28.667Z,77.36
2017-09-24T09:39:56.977Z,77.32
2017-09-24T09:42:25.334Z,77.05
2017-09-24T09:44:53.665Z,76.37
2017-09-24T09:47:27.742Z,76.41
2017-09-24T09:49:56.093Z,76.08
2017-09-24T09:52:25.165Z,75.97
2017-09-24T09:54:53.518Z,75.47
2017-09-24T09:57:21.863Z,75.06
2017-09-24T09:59:50.216Z,74.21
2017-09-24T10:02:18.535Z,74.01
2017-09-24T10:04:46.855Z,74.24
2017-09-24T10:07:32.856Z,73.68
2017-09-24T10:10:16.733Z,73.32
2017-09-24T10:12:45.050Z,73.16
2017-09-24T10:15:13.372Z,72.68
2017-09-24T10:17:42.444Z,72.15
2017-09-24T10:20:10.771Z,72.63
2017-09-24T10:22:39.119Z,72.17
2017-09-24T10:25:07.449Z,71.78
2017-09-24T10:27:35.759Z,71.20
2017-09-24T10:30:21.917Z,70.44
2017-09-24T10:32:50.247Z,70.20
2017-09-24T10:35:18.567Z,70.21
2017-09-24T10:37:47.652Z,69.71
2017-09-24T10:40:16.742Z,69.93
2017-09-24T10:42:45.071Z,70.16
2017-09-24T10:45:13.384Z,70.38
2017-09-24T10:47:41.709Z,70.26
2017-09-24T10:50:10.821Z,70.38
2017-09-24T10:52:39.141Z,70.76
2017-09-24T10:55:07.453Z,71.29
2017-09-24T10:57:36.561Z,71.66
2017-09-24T11:00:05.643Z,72.26
2017-09-24T11:02:33.967Z,72.94
2017-09-24T11:05:02.300Z,73.23
2017-09-24T11:07:30.628Z,73.77
2017-09-24T11:09:58.952Z,74.04
2017-09-24T11:12:27.282Z,74.37
2017-09-24T11:14:56.363Z,74.61
2017-09-24T11:17:25.457Z,74.81
2017-09-24T11:19:53.769Z,74.95
2017-09-24T11:22:22.094Z,74.87
2017-09-24T11:24:50.429Z,74.89
2017-09-24T11:27:18.736Z,74.58
2017-09-24T11:29:47.048Z,74.25
2017-09-24T11:32:15.379Z,73.95
2017-09-24T11:34:43.693Z,73.51
2017-09-24T11:37:12.008Z,73.06
2017-09-24T11:39:40.316Z,72.98
2017-09-24T11:42:08.638Z,72.52
2017-09-24T11:44:36.968Z,72.29
2017-09-24T11:47:06.024Z,71.80
2017-09-24T11:49:34.350Z,71.80
2017-09-24T11:52:03.443Z,71.46
2017-09-24T11:54:32.546Z,71.17
2017-09-24T11:57:01.666Z,70.69
2017-09-24T11:59:29.977Z,70.00
2017-09-24T12:01:58.294Z,69.58
2017-09-24T12:04:26.615Z,69.50
2017-09-24T12:06:54.927Z,69.29
2017-09-24T12:09:23.254Z,69.27
2017-09-24T12:11:52.337Z,68.75
2017-09-24T12:14:20.666Z,68.32
2017-09-24T12:16:49.001Z,68.13
2017-09-24T12:19:17.318Z,67.88
2017-09-24T12:21:45.631Z,67.56
2017-09-24T12:24:13.950Z,66.84
2017-09-24T12:26:42.298Z,67.02
2017-09-24T12:29:10.602Z,66.88
2017-09-24T12:31:38.941Z,66.72
2017-09-24T12:34:07.287Z,66.78
2017-09-24T12:36:36.370Z,66.64
2017-09-24T12:39:04.692Z,66.56
2017-09-24T12:41:33.011Z,66.60
2017-09-24T12:44:01.337Z,66.41
2017-09-24T12:46:29.692Z,65.55
2017-09-24T12:48:58.003Z,65.36
2017-09-24T12:51:27.130Z,65.23
2017-09-24T12:53:55.465Z,65.13
2017-09-24T12:56:24.542Z,64.76
2017-09-24T12:58:52.875Z,66.37
2017-09-24T13:01:21.194Z,66.70
2017-09-24T13:03:50.291Z,66.43
2017-09-24T13:06:18.637Z,66.31
2017-09-24T13:08:46.936Z,65.83
2017-09-24T13:11:15.255Z,65.26
2017-09-24T13:13:43.580Z,66.06
2017-09-24T13:16:11.903Z,66.12
2017-09-24T13:18:40.228Z,65.70
2017-09-24T13:21:09.294Z,65.57
2017-09-24T13:23:37.612Z,65.26
2017-09-24T13:26:06.711Z,65.06
2017-09-24T13:28:35.801Z,65.48
2017-09-24T13:31:04.880Z,65.66
2017-09-24T13:33:33.248Z,65.11
2017-09-24T13:36:01.561Z,65.21
2017-09-24T13:38:29.884Z,65.38
2017-09-24T13:40:58.209Z,65.42
2017-09-24T13:43:28.125Z,65.80
2017-09-24T13:45:56.447Z,66.21
2017-09-24T13:48:24.770Z,66.14
2017-09-24T13:50:53.097Z,66.01
2017-09-24T13:53:22.184Z,66.53
2017-09-24T13:55:50.497Z,66.59
2017-09-24T13:58:18.825Z,66.58
2017-09-24T14:00:47.139Z,66.21
2017-09-24T14:03:16.203Z,65.66
2017-09-24T14:05:44.522Z,65.91
2017-09-24T14:08:14.763Z,65.68
2017-09-24T14:10:43.062Z,65.61
2017-09-24T14:13:11.351Z,65.81
2017-09-24T14:15:39.732Z,65.74
2017-09-24T14:18:08.038Z,65.59
2017-09-24T14:20:36.327Z,65.53
2017-09-24T14:23:04.667Z,65.39
2017-09-24T14:25:32.967Z,65.11
2017-09-24T14:28:01.282Z,64.80
2017-09-24T14:30:30.364Z,64.85
2017-09-24T14:32:58.727Z,64.60
2017-09-24T14:35:27.038Z,64.48
2017-09-24T14:37:55.361Z,64.51
2017-09-24T14:40:23.663Z,64.28
2017-09-24T14:42:51.982Z,64.16
2017-09-24T14:45:20.309Z,64.24
2017-09-24T14:47:48.615Z,64.26
2017-09-24T14:50:16.914Z,64.29
2017-09-24T14:52:45.240Z,64.06
2017-09-24T14:55:14.324Z,64.18
2017-09-24T14:57:42.634Z,63.83
2017-09-24T15:00:10.936Z,63.46
2017-09-24T15:02:39.258Z,63.27
2017-09-24T15:05:07.575Z,63.88
2017-09-24T15:07:35.898Z,63.64
2017-09-24T15:10:04.219Z,63.07
2017-09-24T15:12:33.298Z,62.62
2017-09-24T15:15:01.632Z,62.66
2017-09-24T15:17:29.952Z,62.75
2017-09-24T15:19:58.300Z,62.40
2017-09-24T15:22:26.619Z,62.09
2017-09-24T15:24:54.958Z,61.70
2017-09-24T15:27:23.299Z,62.04
2017-09-24T15:29:51.653Z,62.32
2017-09-24T15:32:19.992Z,62.21
2017-09-24T15:34:49.093Z,61.95
2017-09-24T15:37:18.178Z,62.05
2017-09-24T15:39:47.288Z,62.25
2017-09-24T15:42:16.450Z,62.41
2017-09-24T15:44:44.762Z,62.23
2017-09-24T15:47:13.870Z,62.17
2017-09-24T15:49:42.969Z,62.35
2017-09-24T15:52:12.069Z,62.51
2017-09-24T15:54:41.190Z,62.81
2017-09-24T15:57:09.496Z,63.01
2017-09-24T15:59:37.807Z,63.00
2017-09-24T16:02:06.134Z,62.94
2017-09-24T16:04:34.466Z,62.99
2017-09-24T16:07:02.792Z,63.13
2017-09-24T16:09:31.307Z,63.42
2017-09-24T16:11:59.627Z,63.38
2017-09-24T16:14:27.953Z,63.06
2017-09-24T16:16:56.268Z,63.13
2017-09-24T16:19:24.588Z,63.58
2017-09-24T16:21:53.668Z,64.01
2017-09-24T16:24:21.991Z,64.15
2017-09-24T16:26:50.304Z,64.51
2017-09-24T16:29:19.204Z,64.71
2017-09-24T16:31:47.501Z,64.63
2017-09-24T16:34:15.825Z,65.02
2017-09-24T16:36:44.148Z,65.28
2017-09-24T16:39:12.461Z,65.35
2017-09-24T16:41:41.547Z,65.52
2017-09-24T16:44:09.925Z,65.76
2017-09-24T16:46:38.269Z,66.16
2017-09-24T16:49:06.600Z,66.20
2017-09-24T16:51:35.699Z,66.57
2017-09-24T16:54:04.013Z,66.99
2017-09-24T16:56:32.328Z,67.14
2017-09-24T16:59:00.647Z,67.50
2017-09-24T17:01:28.963Z,67.72
2017-09-24T17:03:57.298Z,68.00
2017-09-24T17:06:25.602Z,68.30
2017-09-24T17:08:54.679Z,68.43
2017-09-24T17:11:22.997Z,68.80
2017-09-24T17:13:52.075Z,68.93
2017-09-24T17:16:20.397Z,69.34
2017-09-24T17:18:48.729Z,69.64
2017-09-24T17:21:17.825Z,69.87
2017-09-24T17:23:46.153Z,70.24
2017-09-24T17:26:14.479Z,70.64
2017-09-24T17:28:42.807Z,70.92
2017-09-24T17:31:11.139Z,71.19
2017-09-24T17:33:39.450Z,71.27
2017-09-24T17:36:07.763Z,71.59
2017-09-24T17:38:36.137Z,72.00
2017-09-24T17:41:04.458Z,72.22
2017-09-24T17:43:32.781Z,72.78
2017-09-24T17:46:01.115Z,73.04
2017-09-24T17:48:29.428Z,73.17
2017-09-24T17:50:57.753Z,73.63
2017-09-24T17:53:26.067Z,73.92
2017-09-24T17:55:54.396Z,74.08
2017-09-24T17:58:23.553Z,74.20
2017-09-24T18:00:51.863Z,74.31
2017-09-24T18:03:20.952Z,74.55
2017-09-24T18:05:49.287Z,74.68
2017-09-24T18:08:17.595Z,74.95
2017-09-24T18:10:45.915Z,75.09
2017-09-24T18:13:15.034Z,75.28
2017-09-24T18:15:44.097Z,75.46
2017-09-24T18:18:12.397Z,75.62
2017-09-24T18:20:41.479Z,75.82
2017-09-24T18:23:09.795Z,76.15
2017-09-24T18:25:38.881Z,76.57
2017-09-24T18:28:07.967Z,76.81
2017-09-24T18:30:36.284Z,76.93
2017-09-24T18:33:04.584Z,77.27
2017-09-24T18:35:32.886Z,77.61
2017-09-24T18:38:01.195Z,77.72
2017-09-24T18:40:29.531Z,77.95
2017-09-24T18:42:57.852Z,78.18
2017-09-24T18:45:26.296Z,78.42
2017-09-24T18:47:54.607Z,78.61
2017-09-24T18:50:23.119Z,78.75
2017-09-24T18:52:51.437Z,78.91
2017-09-24T18:55:19.878Z,79.21
2017-09-24T18:57:48.986Z,79.23
2017-09-24T19:00:18.071Z,79.25
2017-09-24T19:02:46.415Z,79.29
2017-09-24T19:05:15.089Z,79.39
2017-09-24T19:07:43.683Z,79.35
2017-09-24T19:10:12.030Z,79.53
2017-09-24T19:12:41.099Z,79.77
2017-09-24T19:15:09.465Z,79.81
2017-09-24T19:17:37.823Z,79.94
2017-09-24T19:20:06.428Z,80.09
2017-09-24T19:22:36.547Z,80.26
2017-09-24T19:25:05.223Z,80.36
2017-09-24T19:27:33.915Z,80.50
2017-09-24T19:30:02.499Z,80.58
2017-09-24T19:32:30.911Z,80.67
2017-09-24T19:34:59.286Z,80.83
2017-09-24T19:37:27.707Z,80.94
2017-09-24T19:39:57.111Z,81.12
2017-09-24T19:42:25.802Z,81.45
2017-09-24T19:44:54.885Z,81.71
2017-09-24T19:47:23.537Z,81.77
2017-09-24T19:49:52.152Z,81.94
2017-09-24T19:52:20.557Z,82.09
2017-09-24T19:54:48.930Z,82.14
2017-09-24T19:57:17.238Z,82.24
2017-09-24T19:59:46.320Z,82.41
2017-09-24T20:02:14.635Z,82.58
2017-09-24T20:04:43.801Z,82.79
2017-09-24T20:07:12.220Z,83.03
2017-09-24T20:09:41.339Z,83.12
2017-09-24T20:12:09.666Z,83.19
2017-09-24T20:14:37.973Z,83.27
2017-09-24T20:17:07.073Z,83.24
2017-09-24T20:19:36.158Z,83.20
2017-09-24T20:22:04.488Z,83.11
2017-09-24T20:24:32.814Z,83.14
2017-09-24T20:27:01.118Z,83.31
2017-09-24T20:29:30.254Z,83.47
2017-09-24T20:31:58.555Z,83.53
2017-09-24T20:34:26.881Z,83.63
2017-09-24T20:36:55.961Z,83.91
2017-09-24T20:39:24.261Z,84.12
2017-09-24T20:41:53.356Z,84.36
2017-09-24T20:44:23.271Z,84.40
2017-09-24T20:46:51.597Z,84.48
2017-09-24T20:49:19.914Z,84.57
2017-09-24T20:51:48.218Z,84.69
2017-09-24T20:54:17.320Z,84.82
2017-09-24T20:56:46.410Z,84.97
2017-09-24T20:59:14.736Z,85.01
2017-09-24T21:01:43.058Z,84.95
2017-09-24T21:04:11.365Z,84.99
2017-09-24T21:06:40.448Z,85.12
2017-09-24T21:09:08.752Z,85.29
2017-09-24T21:11:37.834Z,85.44
2017-09-24T21:14:06.151Z,85.58
2017-09-24T21:16:34.459Z,85.66
2017-09-24T21:19:02.766Z,85.67
2017-09-24T21:21:31.784Z,85.56
2017-09-24T21:24:00.855Z,85.63
2017-09-24T21:26:29.201Z,85.67
2017-09-24T21:28:57.497Z,85.82
2017-09-24T21:31:25.811Z,85.95
2017-09-24T21:33:55.638Z,85.92
2017-09-24T21:36:23.945Z,85.89
2017-09-24T21:38:53.024Z,86.03
2017-09-24T21:41:21.361Z,86.14
2017-09-24T21:43:49.669Z,86.18
2017-09-24T21:46:18.032Z,86.13
2017-09-24T21:48:46.336Z,86.20
2017-09-24T21:51:14.629Z,86.26
2017-09-24T21:53:42.956Z,86.47
2017-09-24T21:56:11.250Z,86.56
2017-09-24T21:58:39.555Z,86.64
2017-09-24T22:01:07.935Z,86.72
2017-09-24T22:03:36.241Z,86.77
2017-09-24T22:06:05.320Z,86.84
2017-09-24T22:08:33.625Z,86.81
2017-09-24T22:11:02.153Z,86.79
2017-09-24T22:13:30.466Z,86.84
2017-09-24T22:15:58.804Z,86.92
2017-09-24T22:18:27.122Z,86.83
2017-09-24T22:20:55.437Z,86.94
2017-09-24T22:23:23.750Z,87.07
2017-09-24T22:25:52.052Z,87.16
2017-09-24T22:28:20.372Z,87.25
2017-09-24T22:30:49.467Z,87.44
2017-09-24T22:33:17.793Z,87.60
2017-09-24T22:35:46.096Z,87.71
2017-09-24T22:38:14.418Z,87.96
2017-09-24T22:40:42.745Z,87.97
2017-09-24T22:43:11.059Z,87.99
2017-09-24T22:45:39.372Z,88.04
2017-09-24T22:48:07.707Z,88.07
2017-09-24T22:50:36.003Z,88.15
2017-09-24T22:53:04.318Z,88.29
2017-09-24T22:55:32.758Z,88.33
2017-09-24T22:58:01.066Z,88.34
2017-09-24T23:00:29.422Z,88.54
2017-09-24T23:02:57.721Z,88.59
2017-09-24T23:05:26.032Z,88.66
2017-09-24T23:07:55.101Z,88.74
2017-09-24T23:10:23.430Z,88.77
2017-09-24T23:12:51.739Z,88.83
2017-09-24T23:15:20.075Z,88.94
2017-09-24T23:17:49.154Z,89.09
2017-09-24T23:20:17.502Z,89.23
2017-09-24T23:22:45.802Z,89.39
2017-09-24T23:25:14.129Z,89.46
2017-09-24T23:27:43.237Z,89.50
2017-09-24T23:30:12.337Z,89.60
2017-09-24T23:32:40.665Z,89.64
2017-09-24T23:35:08.973Z,89.71
2017-09-24T23:37:38.795Z,89.81
2017-09-24T23:40:07.103Z,89.89
2017-09-24T23:42:35.416Z,90.00
2017-09-24T23:45:03.724Z,90.05
2017-09-24T23:47:32.063Z,90.12
2017-09-24T23:50:00.363Z,90.20
2017-09-24T23:52:28.705Z,90.31
2017-09-24T23:54:57.783Z,90.42
2017-09-24T23:57:26.101Z,90.57
2017-09-24T23:59:54.411Z,90.52
